Airfield :
LOGIN :

Register | Disclaimer

   EN    FR    IT 

 










Legend :    VFR   Marginal VFR   IFR   Intensive IFR   Very Intensive IFR
Visi :
Ceiling :
>= 8 km
>= 3000ft
5 to 8 km
1000 to 3000 ft
1500m to 5 km
500 to 1000 ft
800 to 1500m
200 to 500 ft
< 800m
< 200 ft
Symbols :   Thunderstorms  Fog  Heavy snow  Heavy precipitations  Wind > 20 kt
SIGMETs :     Misc.  Thunderstorms  Icing  Turbulence  Mountain Waves  Volcanic Ashes







- Airport Elevation : 784 ft
- IATA code : TZL


LQTZ - Tuzla

CURRENT METAR :
  • 250830Z VRB02KT 9999 FEW035 23/17 Q1016

EXPIRED METARs :
  • 250800Z VRB02KT 9999 FEW030 22/17 Q1016
  • 250730Z VRB02KT 9999 FEW030 21/17 Q1016
  • 250700Z VRB03KT 6000 FEW030 18/16 Q1016
  • 250630Z VRB01KT 4000 BR SCT002 17/16 Q1016
  • 250600Z VRB02KT 1500 BR BKN002 16/15 Q1016

TAF TAF LQTZ
Valid from the 25 at 06:00 until the 26 at 06:00 UTC


250500Z 2506/2606 VRB02KT CAVOK TX26/2513Z TN12/2604Z
PROB40
TEMPO 2510/2520 SHRA FEW033TCU BKN045
PROB30
TEMPO 2512/2518 TSRA FEW010 FEW030CB BKN045
TEMPO 2602/2606 0300 FG BKN002
No reported NOTAMs for that airfield.



MET'MAP, your aeronautical weather chart ! - Copyright ORBIFLY December 2007 - Disclaimer

ORBIFLY MET'MAP TEAM :

Programming & Development : Alexandra Zaïnal
Concept & Development : Baudouin d'Aumeries
Co-Development & Prog : Marc-Olivier Méhu
Technical & hardware support : Manuel Goepfert

Contact : metmap@orbifly.com




SOURCES & CREDITS :

   NOAA